createdAt,value
2018-05-11T00:02:15.272Z,3.27
2018-05-11T00:05:19.570Z,4.83
2018-05-11T00:08:22.840Z,2.15
2018-05-11T00:11:26.262Z,1.97
2018-05-11T00:14:29.592Z,2.73
2018-05-11T00:17:32.865Z,1.92
2018-05-11T00:20:36.112Z,2.40
2018-05-11T00:23:39.384Z,3.20
2018-05-11T00:26:42.670Z,2.27
2018-05-11T00:29:45.921Z,2.10
2018-05-11T00:32:49.193Z,3.70
2018-05-11T00:35:52.502Z,3.10
2018-05-11T00:38:55.779Z,2.33
2018-05-11T00:41:59.037Z,3.43
2018-05-11T00:45:03.085Z,2.97
2018-05-11T00:48:07.103Z,3.30
2018-05-11T00:51:11.305Z,5.17
2018-05-11T00:54:14.384Z,3.03
2018-05-11T00:57:17.698Z,3.57
2018-05-11T01:00:21.714Z,4.83
2018-05-11T01:03:25.733Z,3.77
2018-05-11T01:06:29.778Z,3.75
2018-05-11T01:09:33.070Z,5.30
2018-05-11T01:12:36.350Z,8.50
2018-05-11T01:15:40.361Z,6.83
2018-05-11T01:18:44.379Z,5.27
2018-05-11T01:21:48.416Z,4.23
2018-05-11T01:24:51.674Z,3.80
2018-05-11T01:27:54.929Z,6.97
2018-05-11T01:30:58.189Z,4.22
2018-05-11T01:34:02.228Z,6.40
2018-05-11T01:37:05.561Z,5.78
2018-05-11T01:40:08.823Z,4.27
2018-05-11T01:43:12.214Z,5.07
2018-05-11T01:46:15.528Z,5.77
2018-05-11T01:49:18.780Z,3.90
2018-05-11T01:52:22.830Z,7.00
2018-05-11T01:55:26.086Z,7.30
2018-05-11T01:58:38.692Z,7.47
2018-05-11T02:01:42.574Z,8.77
2018-05-11T02:04:45.832Z,7.43
2018-05-11T02:07:49.855Z,5.73
2018-05-11T02:10:53.878Z,6.83
2018-05-11T02:13:57.130Z,4.67
2018-05-11T02:17:00.556Z,5.80
2018-05-11T02:20:04.569Z,5.33
2018-05-11T02:23:08.587Z,6.07
2018-05-11T02:26:12.621Z,6.30
2018-05-11T02:29:15.885Z,5.17
2018-05-11T02:32:19.937Z,3.83
2018-05-11T02:35:24.227Z,9.60
2018-05-11T02:38:28.351Z,4.93
2018-05-11T02:41:32.382Z,6.20
2018-05-11T02:44:35.666Z,5.03
2018-05-11T02:47:38.938Z,7.47
2018-05-11T02:50:42.282Z,4.27
2018-05-11T02:53:45.555Z,4.47
2018-05-11T02:56:49.580Z,5.00
2018-05-11T02:59:52.859Z,10.33
2018-05-11T03:02:56.884Z,6.97
2018-05-11T03:06:00.933Z,4.63
2018-05-11T03:09:04.189Z,9.20
2018-05-11T03:12:07.453Z,5.80
2018-05-11T03:15:10.739Z,4.47
2018-05-11T03:18:14.025Z,7.17
2018-05-11T03:21:17.357Z,5.47
2018-05-11T03:24:21.342Z,5.00
2018-05-11T03:27:24.605Z,6.27
2018-05-11T03:30:28.625Z,4.27
2018-05-11T03:33:31.874Z,4.97
2018-05-11T03:36:35.134Z,4.73
2018-05-11T03:39:39.154Z,4.13
2018-05-11T03:42:43.182Z,7.50
2018-05-11T03:45:47.367Z,6.47
2018-05-11T03:48:50.694Z,7.00
2018-05-11T03:51:54.717Z,4.73
2018-05-11T03:54:57.961Z,5.43
2018-05-11T03:58:01.477Z,6.83
2018-05-11T04:04:51.362Z,8.30
2018-05-11T04:08:12.451Z,8.60
2018-05-11T04:11:16.472Z,6.07
2018-05-11T04:14:19.730Z,8.63
2018-05-11T04:17:22.987Z,4.27
2018-05-11T04:20:26.257Z,4.97
2018-05-11T04:23:30.346Z,3.17
2018-05-11T04:26:33.840Z,4.47
2018-05-11T04:29:37.084Z,6.00
2018-05-11T04:32:40.837Z,6.27
2018-05-11T04:35:44.081Z,5.80
2018-05-11T04:38:48.150Z,3.63
2018-05-11T04:41:51.447Z,5.90
2018-05-11T04:44:54.690Z,4.93
2018-05-11T04:47:58.711Z,5.57
2018-05-11T04:51:02.746Z,4.43
2018-05-11T04:54:06.038Z,4.37
2018-05-11T04:57:09.297Z,4.70
2018-05-11T05:00:12.575Z,3.57
2018-05-11T05:03:16.000Z,4.30
2018-05-11T05:06:19.253Z,3.40
2018-05-11T05:09:22.781Z,4.53
2018-05-11T05:12:26.057Z,4.70
2018-05-11T05:15:29.304Z,4.07
2018-05-11T05:18:32.553Z,5.57
2018-05-11T05:21:36.671Z,3.27
2018-05-11T05:24:40.707Z,4.70
2018-05-11T05:27:43.976Z,5.23
2018-05-11T05:30:48.008Z,5.63
2018-05-11T05:33:52.022Z,3.63
2018-05-11T05:36:56.079Z,6.83
2018-05-11T05:39:59.511Z,3.70
2018-05-11T05:43:02.763Z,4.40
2018-05-11T05:46:06.234Z,4.57
2018-05-11T05:49:09.482Z,2.33
2018-05-11T05:52:12.743Z,2.30
2018-05-11T05:55:16.835Z,3.50
2018-05-11T05:58:20.148Z,3.87
2018-05-11T06:01:23.400Z,5.23
2018-05-11T06:04:26.683Z,2.40
2018-05-11T06:07:29.946Z,3.77
2018-05-11T06:10:33.208Z,7.27
2018-05-11T06:13:36.461Z,4.60
2018-05-11T06:16:39.737Z,8.67
2018-05-11T06:19:43.877Z,4.83
2018-05-11T06:22:47.146Z,3.90
2018-05-11T06:25:50.410Z,7.07
2018-05-11T06:28:54.446Z,5.00
2018-05-11T06:31:57.703Z,4.87
2018-05-11T06:35:01.042Z,5.17
2018-05-11T06:38:05.106Z,5.27
2018-05-11T06:41:08.450Z,5.93
2018-05-11T06:44:12.453Z,5.93
2018-05-11T06:47:15.743Z,5.87
2018-05-11T06:50:19.034Z,7.77
2018-05-11T06:53:22.301Z,5.23
2018-05-11T06:56:25.562Z,5.47
2018-05-11T06:59:29.582Z,8.23
2018-05-11T07:02:32.882Z,8.63
2018-05-11T07:05:36.937Z,7.23
2018-05-11T07:08:40.313Z,7.97
2018-05-11T07:11:43.569Z,10.88
2018-05-11T07:14:46.826Z,7.37
2018-05-11T07:17:50.112Z,6.67
2018-05-11T07:20:54.235Z,6.93
2018-05-11T07:23:57.489Z,7.83
2018-05-11T07:27:00.777Z,9.83
2018-05-11T07:30:04.058Z,7.37
2018-05-11T07:33:07.313Z,8.23
2018-05-11T07:36:11.351Z,9.57
2018-05-11T07:39:14.608Z,7.97
2018-05-11T07:42:17.869Z,8.20
2018-05-11T07:45:21.251Z,9.40
2018-05-11T07:48:25.277Z,6.57
2018-05-11T07:51:28.566Z,6.60
2018-05-11T07:54:32.036Z,7.20
2018-05-11T07:57:35.353Z,7.20
2018-05-11T08:00:39.388Z,7.40
2018-05-11T08:03:42.651Z,6.47
2018-05-11T08:06:45.909Z,5.67
2018-05-11T08:09:49.174Z,5.83
2018-05-11T08:12:53.361Z,6.70
2018-05-11T08:15:56.663Z,6.03
2018-05-11T08:18:59.915Z,5.67
2018-05-11T08:22:03.186Z,5.20
2018-05-11T08:25:07.311Z,8.97
2018-05-11T08:28:11.336Z,10.87
2018-05-11T08:31:15.365Z,7.32
2018-05-11T08:34:18.617Z,6.27
2018-05-11T08:37:21.877Z,8.23
2018-05-11T08:40:25.162Z,7.73
2018-05-11T08:43:28.410Z,6.60
2018-05-11T08:46:31.706Z,6.40
2018-05-11T08:49:34.954Z,6.93
2018-05-11T08:52:39.178Z,6.03
2018-05-11T08:55:43.217Z,6.87
2018-05-11T08:58:47.219Z,5.90
2018-05-11T09:01:51.346Z,5.67
2018-05-11T09:04:55.362Z,6.60
2018-05-11T09:07:58.635Z,5.75
2018-05-11T09:11:01.921Z,7.97
2018-05-11T09:14:05.180Z,5.17
2018-05-11T09:17:08.452Z,8.63
2018-05-11T09:20:11.758Z,5.87
2018-05-11T09:23:15.778Z,10.90
2018-05-11T09:26:19.048Z,6.93
2018-05-11T09:29:22.303Z,6.90
2018-05-11T09:32:25.687Z,8.53
2018-05-11T09:35:28.935Z,7.77
2018-05-11T09:38:33.123Z,8.87
2018-05-11T09:41:36.406Z,8.37
2018-05-11T09:44:39.666Z,5.33
2018-05-11T09:47:42.930Z,8.73
2018-05-11T09:50:47.461Z,7.65
2018-05-11T09:53:50.709Z,6.03
2018-05-11T09:56:53.957Z,6.27
2018-05-11T09:59:57.222Z,7.33
2018-05-11T10:03:00.488Z,6.67
2018-05-11T10:06:03.773Z,6.53
2018-05-11T10:09:07.034Z,6.83
2018-05-11T10:12:10.299Z,7.60
2018-05-11T10:15:13.617Z,7.60
2018-05-11T10:18:17.028Z,6.90
2018-05-11T10:21:20.297Z,8.80
2018-05-11T10:24:23.779Z,7.67
2018-05-11T10:27:27.796Z,9.70
2018-05-11T10:30:31.822Z,8.93
2018-05-11T10:33:35.073Z,7.37
2018-05-11T10:36:38.337Z,6.57
2018-05-11T10:39:41.634Z,8.53
2018-05-11T10:42:45.216Z,8.20
2018-05-11T10:45:49.351Z,8.23
2018-05-11T10:48:52.696Z,6.23
2018-05-11T10:51:55.893Z,7.97
2018-05-11T10:54:59.150Z,7.93
2018-05-11T10:58:02.473Z,5.87
2018-05-11T11:01:06.487Z,8.30
2018-05-11T11:04:09.833Z,6.97
2018-05-11T11:07:13.228Z,5.93
2018-05-11T11:10:16.524Z,6.70
2018-05-11T11:13:19.841Z,9.00
2018-05-11T11:16:23.516Z,8.97
2018-05-11T11:19:26.802Z,8.67
2018-05-11T11:22:30.053Z,7.10
2018-05-11T11:25:33.302Z,8.00
2018-05-11T11:28:36.573Z,5.63
2018-05-11T11:31:40.734Z,4.80
2018-05-11T11:34:44.089Z,6.33
2018-05-11T11:37:48.056Z,7.30
2018-05-11T11:40:52.139Z,6.87
2018-05-11T11:43:56.267Z,5.10
2018-05-11T11:47:00.305Z,5.13
2018-05-11T11:50:03.592Z,7.67
2018-05-11T11:53:06.850Z,6.37
2018-05-11T11:56:10.371Z,11.43
2018-05-11T11:59:14.634Z,8.77
2018-05-11T12:02:17.889Z,8.87
2018-05-11T12:05:21.918Z,11.97
2018-05-11T12:08:26.760Z,6.80
2018-05-11T12:11:30.810Z,8.43
2018-05-11T12:14:34.061Z,9.43
2018-05-11T12:17:38.932Z,7.70
2018-05-11T12:20:42.192Z,6.67
2018-05-11T12:23:45.465Z,7.87
2018-05-11T12:26:48.728Z,5.80
2018-05-11T12:29:51.985Z,7.17
2018-05-11T12:32:55.362Z,6.93
2018-05-11T12:35:58.676Z,9.13
2018-05-11T12:39:02.705Z,9.47
2018-05-11T12:42:05.978Z,10.80
2018-05-11T12:45:09.228Z,6.77
2018-05-11T12:48:13.250Z,8.43
2018-05-11T12:51:17.269Z,7.70
2018-05-11T12:54:21.297Z,9.10
2018-05-11T12:57:25.330Z,7.80
2018-05-11T13:00:28.625Z,6.47
2018-05-11T13:03:33.384Z,5.87
2018-05-11T13:06:36.685Z,9.65
2018-05-11T13:09:39.954Z,10.77
2018-05-11T13:12:43.984Z,9.60
2018-05-11T13:15:48.017Z,8.93
2018-05-11T13:18:51.300Z,8.47
2018-05-11T13:21:56.274Z,8.57
2018-05-11T13:25:09.872Z,10.73
2018-05-11T13:28:13.571Z,8.50
2018-05-11T13:31:16.980Z,10.13
2018-05-11T13:34:21.043Z,11.97
2018-05-11T13:37:24.289Z,11.13
2018-05-11T13:40:28.597Z,9.43
2018-05-11T13:43:32.162Z,11.17
2018-05-11T13:46:35.429Z,13.80
2018-05-11T13:49:38.722Z,9.90
2018-05-11T13:52:42.753Z,8.63
2018-05-11T13:55:47.523Z,9.00
2018-05-11T13:58:50.791Z,8.73
2018-05-11T14:01:54.834Z,10.10
2018-05-11T14:04:58.096Z,11.60
2018-05-11T14:08:01.389Z,9.37
2018-05-11T14:11:04.741Z,7.30
2018-05-11T14:14:07.995Z,8.90
2018-05-11T14:17:12.446Z,9.57
2018-05-11T14:20:16.731Z,9.57
2018-05-11T14:23:20.059Z,11.23
2018-05-11T14:26:23.320Z,8.67
2018-05-11T14:29:26.629Z,9.60
2018-05-11T14:32:29.957Z,9.33
2018-05-11T14:35:33.230Z,9.27
2018-05-11T14:38:36.550Z,9.33
2018-05-11T14:41:39.812Z,8.63
2018-05-11T14:44:43.123Z,9.83
2018-05-11T14:47:46.402Z,10.30
2018-05-11T14:50:50.442Z,11.23
2018-05-11T14:53:54.447Z,9.33
2018-05-11T14:56:58.541Z,9.50
2018-05-11T15:00:01.829Z,9.13
2018-05-11T15:03:06.163Z,10.80
2018-05-11T15:06:09.437Z,11.57
2018-05-11T15:09:13.061Z,8.80
2018-05-11T15:12:16.329Z,9.60
2018-05-11T15:15:19.580Z,11.23
2018-05-11T15:18:23.042Z,9.43
2018-05-11T15:21:26.336Z,11.00
2018-05-11T15:24:29.729Z,9.80
2018-05-11T15:27:32.995Z,9.10
2018-05-11T15:30:36.293Z,10.50
2018-05-11T15:33:39.575Z,10.53
2018-05-11T15:36:42.837Z,11.82
2018-05-11T15:39:46.963Z,11.83
2018-05-11T15:42:51.021Z,11.40
2018-05-11T15:45:54.300Z,11.53
2018-05-11T15:48:57.549Z,10.90
2018-05-11T15:52:00.853Z,9.77
2018-05-11T15:55:04.143Z,10.80
2018-05-11T15:58:07.414Z,8.90
2018-05-11T16:01:10.731Z,10.40
2018-05-11T16:04:14.020Z,8.27
2018-05-11T16:07:18.050Z,9.37
2018-05-11T16:10:21.358Z,8.57
2018-05-11T16:13:24.732Z,7.83
2018-05-11T16:16:28.754Z,9.40
2018-05-11T16:19:32.793Z,8.77
2018-05-11T16:22:36.081Z,8.57
2018-05-11T16:25:40.921Z,10.53
2018-05-11T16:28:45.185Z,7.90
2018-05-11T16:31:48.460Z,9.00
2018-05-11T16:34:52.595Z,7.87
2018-05-11T16:37:56.764Z,8.98
2018-05-11T16:41:00.038Z,8.00
2018-05-11T16:44:03.307Z,9.37
2018-05-11T16:47:07.342Z,7.57
2018-05-11T16:50:11.562Z,7.00
2018-05-11T16:53:14.739Z,11.07
2018-05-11T16:56:18.001Z,7.10
2018-05-11T16:59:21.293Z,6.50
2018-05-11T17:02:24.558Z,7.07
2018-05-11T17:05:28.677Z,9.73
2018-05-11T17:08:31.997Z,6.73
2018-05-11T17:11:35.263Z,6.60
2018-05-11T17:14:38.578Z,7.13
2018-05-11T17:17:41.834Z,8.23
2018-05-11T17:20:45.097Z,7.47
2018-05-11T17:23:51.144Z,6.10
2018-05-11T17:26:54.505Z,9.13
2018-05-11T17:29:57.775Z,5.97
2018-05-11T17:33:02.960Z,5.30
2018-05-11T17:36:06.259Z,5.30
2018-05-11T17:39:09.526Z,6.80
2018-05-11T17:42:12.860Z,7.07
2018-05-11T17:45:16.142Z,7.93
2018-05-11T17:48:19.406Z,7.33
2018-05-11T17:51:22.753Z,7.47
2018-05-11T17:54:26.016Z,10.60
2018-05-11T17:57:29.331Z,5.37
2018-05-11T18:00:34.736Z,6.50
2018-05-11T18:03:38.003Z,7.33
2018-05-11T18:06:41.398Z,6.20
2018-05-11T18:09:44.601Z,7.13
2018-05-11T18:12:48.476Z,5.93
2018-05-11T18:15:52.539Z,6.45
2018-05-11T18:18:55.817Z,6.57
2018-05-11T18:21:59.094Z,6.37
2018-05-11T18:25:02.357Z,6.17
2018-05-11T18:28:05.631Z,5.80
2018-05-11T18:31:08.885Z,5.63
2018-05-11T18:34:12.166Z,5.97
2018-05-11T18:37:15.441Z,6.00
2018-05-11T18:40:18.706Z,6.00
2018-05-11T18:43:21.993Z,6.77
2018-05-11T18:46:25.249Z,5.63
2018-05-11T18:49:28.508Z,10.07
2018-05-11T18:52:31.783Z,6.80
2018-05-11T18:55:35.829Z,6.60
2018-05-11T18:58:39.081Z,8.80
2018-05-11T19:01:42.493Z,5.97
2018-05-11T19:04:46.171Z,6.67
2018-05-11T19:07:49.908Z,6.37
2018-05-11T19:10:53.290Z,8.13
2018-05-11T19:13:56.617Z,7.17
2018-05-11T19:16:59.930Z,8.13
2018-05-11T19:20:03.284Z,6.17
2018-05-11T19:23:07.307Z,6.00
2018-05-11T19:26:11.423Z,6.33
2018-05-11T19:29:15.465Z,8.20
2018-05-11T19:32:19.483Z,7.77
2018-05-11T19:35:23.130Z,8.17
2018-05-11T19:38:26.545Z,6.37
2018-05-11T19:41:29.864Z,8.02
2018-05-11T19:44:33.356Z,6.13
2018-05-11T19:47:36.639Z,5.97
2018-05-11T19:50:39.914Z,9.13
2018-05-11T19:53:43.593Z,7.93
2018-05-11T19:56:47.785Z,6.80
2018-05-11T19:59:51.163Z,7.93
2018-05-11T20:02:55.191Z,9.73
2018-05-11T20:05:59.248Z,7.87
2018-05-11T20:09:02.501Z,8.43
2018-05-11T20:12:06.619Z,9.07
2018-05-11T20:15:10.670Z,8.33
2018-05-11T20:18:14.004Z,10.10
2018-05-11T20:21:17.453Z,8.57
2018-05-11T20:24:21.539Z,12.07
2018-05-11T20:27:24.812Z,11.07
2018-05-11T20:30:28.072Z,6.13
2018-05-11T20:33:32.152Z,7.10
2018-05-11T20:36:35.403Z,8.87
2018-05-11T20:39:39.114Z,10.73
2018-05-11T20:42:42.421Z,10.73
2018-05-11T20:45:47.567Z,6.60
2018-05-11T20:48:50.821Z,8.23
2018-05-11T20:51:54.205Z,7.90
2018-05-11T20:54:57.499Z,9.43
2018-05-11T20:58:00.819Z,6.72
2018-05-11T21:01:04.072Z,6.07
2018-05-11T21:04:07.347Z,7.73
2018-05-11T21:07:10.609Z,5.23
2018-05-11T21:10:14.793Z,9.90
2018-05-11T21:13:19.625Z,5.00
2018-05-11T21:16:23.078Z,5.63
2018-05-11T21:19:27.177Z,4.93
2018-05-11T21:22:32.972Z,9.07
2018-05-11T21:25:39.254Z,6.83
2018-05-11T21:28:43.524Z,5.43
2018-05-11T21:31:46.852Z,5.07
2018-05-11T21:34:50.409Z,7.07
2018-05-11T21:37:53.687Z,6.93
2018-05-11T21:40:56.965Z,5.90
2018-05-11T21:44:02.338Z,6.17
2018-05-11T21:47:11.150Z,7.37
2018-05-11T21:50:15.330Z,5.77
2018-05-11T21:53:18.825Z,5.40
2018-05-11T21:56:22.116Z,7.53
2018-05-11T21:59:25.471Z,9.90
2018-05-11T22:02:28.741Z,5.78
2018-05-11T22:05:32.020Z,7.47
2018-05-11T22:08:35.344Z,5.90
2018-05-11T22:11:38.606Z,5.50
2018-05-11T22:14:41.885Z,6.13
2018-05-11T22:17:45.911Z,5.90
2018-05-11T22:20:50.025Z,7.30
2018-05-11T22:23:54.055Z,9.87
2018-05-11T22:26:58.074Z,9.03
2018-05-11T22:30:01.332Z,6.37
2018-05-11T22:33:05.374Z,5.17
2018-05-11T22:36:09.411Z,7.73
2018-05-11T22:42:22.145Z,6.90
2018-05-11T22:45:25.430Z,7.03
2018-05-11T22:48:28.743Z,5.60
2018-05-11T22:51:32.083Z,6.60
2018-05-11T22:54:35.588Z,7.57
2018-05-11T22:57:38.923Z,7.95
2018-05-11T23:00:42.311Z,6.60
2018-05-11T23:03:46.535Z,6.33
2018-05-11T23:06:49.713Z,11.13
2018-05-11T23:09:53.001Z,9.57
2018-05-11T23:12:56.329Z,7.60
2018-05-11T23:16:00.395Z,9.33
2018-05-11T23:19:03.664Z,9.10
2018-05-11T23:22:06.921Z,9.00
2018-05-11T23:25:10.174Z,9.97
2018-05-11T23:28:13.424Z,9.37
2018-05-11T23:31:17.461Z,7.00
2018-05-11T23:34:20.730Z,8.87
2018-05-11T23:37:24.014Z,8.27
2018-05-11T23:40:27.271Z,10.93
2018-05-11T23:43:30.533Z,7.07
2018-05-11T23:46:34.012Z,11.77
2018-05-11T23:49:37.268Z,10.43
2018-05-11T23:52:40.757Z,11.57
2018-05-11T23:55:44.028Z,12.57
2018-05-11T23:58:47.375Z,9.60
